sensor_id;sensor_type;location;lat;lon;timestamp;P1;durP1;ratioP1;P2;durP2;ratioP2
6193;SDS011;3130;41.564;23.280;2022-10-31T00:00:23;13.00;;;6.37;;
6193;SDS011;3130;41.564;23.280;2022-10-31T00:02:50;6.87;;;5.53;;
6193;SDS011;3130;41.564;23.280;2022-10-31T00:05:17;8.33;;;5.63;;
6193;SDS011;3130;41.564;23.280;2022-10-31T00:07:45;6.57;;;5.97;;
6193;SDS011;3130;41.564;23.280;2022-10-31T00:10:13;7.40;;;5.53;;
6193;SDS011;3130;41.564;23.280;2022-10-31T00:12:40;8.60;;;4.90;;
6193;SDS011;3130;41.564;23.280;2022-10-31T00:15:07;8.10;;;6.00;;
6193;SDS011;3130;41.564;23.280;2022-10-31T00:17:34;8.20;;;5.70;;
6193;SDS011;3130;41.564;23.280;2022-10-31T00:20:02;8.63;;;5.40;;
6193;SDS011;3130;41.564;23.280;2022-10-31T00:22:29;8.30;;;6.30;;
6193;SDS011;3130;41.564;23.280;2022-10-31T00:24:58;7.13;;;5.60;;
6193;SDS011;3130;41.564;23.280;2022-10-31T00:27:25;5.73;;;5.00;;
6193;SDS011;3130;41.564;23.280;2022-10-31T00:29:52;11.30;;;6.07;;
6193;SDS011;3130;41.564;23.280;2022-10-31T00:32:19;7.97;;;5.90;;
6193;SDS011;3130;41.564;23.280;2022-10-31T00:34:46;6.13;;;5.40;;
6193;SDS011;3130;41.564;23.280;2022-10-31T00:37:13;7.07;;;5.67;;
6193;SDS011;3130;41.564;23.280;2022-10-31T00:39:40;8.50;;;5.50;;
6193;SDS011;3130;41.564;23.280;2022-10-31T00:42:09;6.90;;;5.47;;
6193;SDS011;3130;41.564;23.280;2022-10-31T00:44:36;5.73;;;5.10;;
6193;SDS011;3130;41.564;23.280;2022-10-31T00:47:03;7.37;;;5.50;;
6193;SDS011;3130;41.564;23.280;2022-10-31T00:49:30;11.83;;;6.50;;
6193;SDS011;3130;41.564;23.280;2022-10-31T00:51:57;8.57;;;5.73;;
6193;SDS011;3130;41.564;23.280;2022-10-31T00:54:24;6.27;;;5.70;;
6193;SDS011;3130;41.564;23.280;2022-10-31T00:56:51;7.70;;;5.60;;
6193;SDS011;3130;41.564;23.280;2022-10-31T00:59:19;10.37;;;5.90;;
6193;SDS011;3130;41.564;23.280;2022-10-31T01:01:46;8.20;;;5.43;;
6193;SDS011;3130;41.564;23.280;2022-10-31T01:04:13;8.67;;;5.50;;
6193;SDS011;3130;41.564;23.280;2022-10-31T01:06:40;6.37;;;5.67;;
6193;SDS011;3130;41.564;23.280;2022-10-31T01:09:07;6.97;;;6.17;;
6193;SDS011;3130;41.564;23.280;2022-10-31T01:11:35;10.23;;;5.27;;
6193;SDS011;3130;41.564;23.280;2022-10-31T01:14:02;9.37;;;6.30;;
6193;SDS011;3130;41.564;23.280;2022-10-31T01:16:30;7.70;;;6.00;;
6193;SDS011;3130;41.564;23.280;2022-10-31T01:18:57;6.53;;;5.90;;
6193;SDS011;3130;41.564;23.280;2022-10-31T01:21:25;9.80;;;5.90;;
6193;SDS011;3130;41.564;23.280;2022-10-31T01:23:54;5.93;;;4.97;;
6193;SDS011;3130;41.564;23.280;2022-10-31T01:26:23;6.60;;;5.70;;
6193;SDS011;3130;41.564;23.280;2022-10-31T01:28:51;7.37;;;5.77;;
6193;SDS011;3130;41.564;23.280;2022-10-31T01:31:20;6.77;;;5.33;;
6193;SDS011;3130;41.564;23.280;2022-10-31T01:33:50;8.40;;;5.93;;
6193;SDS011;3130;41.564;23.280;2022-10-31T01:36:18;5.43;;;4.93;;
6193;SDS011;3130;41.564;23.280;2022-10-31T01:38:47;6.57;;;5.93;;
6193;SDS011;3130;41.564;23.280;2022-10-31T01:41:15;6.00;;;5.50;;
6193;SDS011;3130;41.564;23.280;2022-10-31T01:43:49;12.10;;;6.70;;
6193;SDS011;3130;41.564;23.280;2022-10-31T01:46:18;8.93;;;6.10;;
6193;SDS011;3130;41.564;23.280;2022-10-31T01:48:49;6.67;;;6.03;;
6193;SDS011;3130;41.564;23.280;2022-10-31T01:51:19;8.53;;;6.17;;
6193;SDS011;3130;41.564;23.280;2022-10-31T01:53:51;8.63;;;5.90;;
6193;SDS011;3130;41.564;23.280;2022-10-31T01:56:24;7.90;;;5.73;;
6193;SDS011;3130;41.564;23.280;2022-10-31T01:58:52;8.67;;;6.20;;
6193;SDS011;3130;41.564;23.280;2022-10-31T02:01:21;8.53;;;5.80;;
6193;SDS011;3130;41.564;23.280;2022-10-31T02:03:50;6.40;;;5.80;;
6193;SDS011;3130;41.564;23.280;2022-10-31T02:06:20;8.37;;;5.63;;
6193;SDS011;3130;41.564;23.280;2022-10-31T02:08:53;6.47;;;5.80;;
6193;SDS011;3130;41.564;23.280;2022-10-31T02:11:21;6.57;;;5.73;;
6193;SDS011;3130;41.564;23.280;2022-10-31T02:13:48;7.13;;;5.73;;
6193;SDS011;3130;41.564;23.280;2022-10-31T02:16:15;8.13;;;6.23;;
6193;SDS011;3130;41.564;23.280;2022-10-31T02:18:42;6.40;;;5.27;;
6193;SDS011;3130;41.564;23.280;2022-10-31T02:21:14;8.17;;;6.17;;
6193;SDS011;3130;41.564;23.280;2022-10-31T02:24:03;9.67;;;6.40;;
6193;SDS011;3130;41.564;23.280;2022-10-31T02:26:53;8.07;;;6.03;;
6193;SDS011;3130;41.564;23.280;2022-10-31T02:29:36;9.63;;;6.03;;
6193;SDS011;3130;41.564;23.280;2022-10-31T02:32:25;7.07;;;5.60;;
6193;SDS011;3130;41.564;23.280;2022-10-31T02:34:58;8.27;;;5.70;;
6193;SDS011;3130;41.564;23.280;2022-10-31T02:37:34;6.33;;;5.33;;
6193;SDS011;3130;41.564;23.280;2022-10-31T02:40:10;8.63;;;5.97;;
6193;SDS011;3130;41.564;23.280;2022-10-31T02:42:50;11.90;;;6.57;;
6193;SDS011;3130;41.564;23.280;2022-10-31T02:45:24;9.37;;;6.20;;
6193;SDS011;3130;41.564;23.280;2022-10-31T02:47:58;11.50;;;5.97;;
6193;SDS011;3130;41.564;23.280;2022-10-31T02:50:30;8.50;;;6.03;;
6193;SDS011;3130;41.564;23.280;2022-10-31T02:53:01;8.83;;;5.27;;
6193;SDS011;3130;41.564;23.280;2022-10-31T02:55:47;11.93;;;6.17;;
6193;SDS011;3130;41.564;23.280;2022-10-31T02:58:18;11.67;;;5.83;;
6193;SDS011;3130;41.564;23.280;2022-10-31T03:00:52;7.80;;;5.23;;
6193;SDS011;3130;41.564;23.280;2022-10-31T03:03:36;7.03;;;5.07;;
6193;SDS011;3130;41.564;23.280;2022-10-31T03:06:13;8.37;;;5.07;;
6193;SDS011;3130;41.564;23.280;2022-10-31T03:08:47;7.30;;;5.37;;
6193;SDS011;3130;41.564;23.280;2022-10-31T03:11:22;5.40;;;4.90;;
6193;SDS011;3130;41.564;23.280;2022-10-31T03:13:56;6.07;;;5.40;;
6193;SDS011;3130;41.564;23.280;2022-10-31T03:16:27;8.10;;;4.37;;
6193;SDS011;3130;41.564;23.280;2022-10-31T03:19:05;5.60;;;5.10;;
6193;SDS011;3130;41.564;23.280;2022-10-31T03:21:35;8.30;;;5.20;;
6193;SDS011;3130;41.564;23.280;2022-10-31T03:24:06;7.97;;;5.20;;
6193;SDS011;3130;41.564;23.280;2022-10-31T03:26:36;8.03;;;5.33;;
6193;SDS011;3130;41.564;23.280;2022-10-31T03:29:09;9.17;;;5.30;;
6193;SDS011;3130;41.564;23.280;2022-10-31T03:31:40;6.53;;;5.20;;
6193;SDS011;3130;41.564;23.280;2022-10-31T03:34:13;5.73;;;5.13;;
6193;SDS011;3130;41.564;23.280;2022-10-31T03:36:42;10.37;;;7.03;;
6193;SDS011;3130;41.564;23.280;2022-10-31T03:39:12;12.70;;;7.10;;
6193;SDS011;3130;41.564;23.280;2022-10-31T03:41:41;7.97;;;7.00;;
6193;SDS011;3130;41.564;23.280;2022-10-31T03:44:15;11.87;;;7.50;;
6193;SDS011;3130;41.564;23.280;2022-10-31T03:46:44;8.83;;;7.53;;
6193;SDS011;3130;41.564;23.280;2022-10-31T03:49:13;13.20;;;7.47;;
6193;SDS011;3130;41.564;23.280;2022-10-31T03:51:42;7.10;;;6.47;;
6193;SDS011;3130;41.564;23.280;2022-10-31T03:54:15;9.43;;;7.57;;
6193;SDS011;3130;41.564;23.280;2022-10-31T03:56:49;7.97;;;7.17;;
6193;SDS011;3130;41.564;23.280;2022-10-31T03:59:21;12.07;;;6.70;;
6193;SDS011;3130;41.564;23.280;2022-10-31T04:01:53;7.93;;;5.60;;
6193;SDS011;3130;41.564;23.280;2022-10-31T04:04:25;6.67;;;5.33;;
6193;SDS011;3130;41.564;23.280;2022-10-31T04:06:54;9.17;;;6.23;;
6193;SDS011;3130;41.564;23.280;2022-10-31T04:09:23;6.13;;;5.47;;
6193;SDS011;3130;41.564;23.280;2022-10-31T04:11:52;7.33;;;6.37;;
6193;SDS011;3130;41.564;23.280;2022-10-31T04:14:23;8.13;;;6.13;;
6193;SDS011;3130;41.564;23.280;2022-10-31T04:16:52;7.83;;;6.30;;
6193;SDS011;3130;41.564;23.280;2022-10-31T04:19:20;6.43;;;5.77;;
6193;SDS011;3130;41.564;23.280;2022-10-31T04:21:49;8.33;;;6.20;;
6193;SDS011;3130;41.564;23.280;2022-10-31T04:24:16;8.23;;;6.97;;
6193;SDS011;3130;41.564;23.280;2022-10-31T04:26:43;10.23;;;7.63;;
6193;SDS011;3130;41.564;23.280;2022-10-31T04:29:10;10.00;;;8.63;;
6193;SDS011;3130;41.564;23.280;2022-10-31T04:31:37;11.57;;;8.00;;
6193;SDS011;3130;41.564;23.280;2022-10-31T04:34:04;11.17;;;8.83;;
6193;SDS011;3130;41.564;23.280;2022-10-31T04:36:32;10.53;;;8.73;;
6193;SDS011;3130;41.564;23.280;2022-10-31T04:39:01;10.43;;;8.40;;
6193;SDS011;3130;41.564;23.280;2022-10-31T04:41:28;8.83;;;7.93;;
6193;SDS011;3130;41.564;23.280;2022-10-31T04:43:55;9.43;;;7.47;;
6193;SDS011;3130;41.564;23.280;2022-10-31T04:46:21;8.53;;;7.33;;
6193;SDS011;3130;41.564;23.280;2022-10-31T04:48:49;8.43;;;7.57;;
6193;SDS011;3130;41.564;23.280;2022-10-31T04:51:16;9.30;;;8.20;;
6193;SDS011;3130;41.564;23.280;2022-10-31T04:53:43;7.70;;;6.90;;
6193;SDS011;3130;41.564;23.280;2022-10-31T04:56:11;8.53;;;7.73;;
6193;SDS011;3130;41.564;23.280;2022-10-31T04:58:38;7.73;;;6.80;;
6193;SDS011;3130;41.564;23.280;2022-10-31T05:01:05;8.77;;;7.87;;
6193;SDS011;3130;41.564;23.280;2022-10-31T05:03:32;8.70;;;6.90;;
6193;SDS011;3130;41.564;23.280;2022-10-31T05:05:59;10.27;;;6.20;;
6193;SDS011;3130;41.564;23.280;2022-10-31T05:11:13;9.00;;;7.33;;
6193;SDS011;3130;41.564;23.280;2022-10-31T05:13:40;12.07;;;9.77;;
6193;SDS011;3130;41.564;23.280;2022-10-31T05:16:07;10.73;;;9.67;;
6193;SDS011;3130;41.564;23.280;2022-10-31T05:18:34;16.57;;;9.73;;
6193;SDS011;3130;41.564;23.280;2022-10-31T05:21:01;18.47;;;11.80;;
6193;SDS011;3130;41.564;23.280;2022-10-31T05:23:28;18.00;;;12.17;;
6193;SDS011;3130;41.564;23.280;2022-10-31T05:25:55;16.33;;;10.87;;
6193;SDS011;3130;41.564;23.280;2022-10-31T05:28:24;15.13;;;11.87;;
6193;SDS011;3130;41.564;23.280;2022-10-31T05:30:51;17.60;;;12.47;;
6193;SDS011;3130;41.564;23.280;2022-10-31T05:33:18;15.37;;;12.17;;
6193;SDS011;3130;41.564;23.280;2022-10-31T05:35:45;17.60;;;12.23;;
6193;SDS011;3130;41.564;23.280;2022-10-31T05:38:12;11.50;;;7.77;;
6193;SDS011;3130;41.564;23.280;2022-10-31T05:40:39;10.30;;;8.07;;
6193;SDS011;3130;41.564;23.280;2022-10-31T05:43:06;13.20;;;10.07;;
6193;SDS011;3130;41.564;23.280;2022-10-31T05:45:34;10.63;;;7.27;;
6193;SDS011;3130;41.564;23.280;2022-10-31T05:48:01;9.60;;;7.77;;
6193;SDS011;3130;41.564;23.280;2022-10-31T05:50:29;16.97;;;13.03;;
6193;SDS011;3130;41.564;23.280;2022-10-31T05:52:58;18.17;;;11.30;;
6193;SDS011;3130;41.564;23.280;2022-10-31T05:55:26;15.33;;;11.07;;
6193;SDS011;3130;41.564;23.280;2022-10-31T05:57:54;16.93;;;12.83;;
6193;SDS011;3130;41.564;23.280;2022-10-31T06:00:22;17.13;;;13.13;;
6193;SDS011;3130;41.564;23.280;2022-10-31T06:02:53;18.37;;;13.60;;
6193;SDS011;3130;41.564;23.280;2022-10-31T06:05:24;26.10;;;17.83;;
6193;SDS011;3130;41.564;23.280;2022-10-31T06:07:51;18.87;;;16.13;;
6193;SDS011;3130;41.564;23.280;2022-10-31T06:10:18;19.47;;;13.80;;
6193;SDS011;3130;41.564;23.280;2022-10-31T06:12:46;21.80;;;14.63;;
6193;SDS011;3130;41.564;23.280;2022-10-31T06:15:13;26.23;;;14.87;;
6193;SDS011;3130;41.564;23.280;2022-10-31T06:17:41;62.10;;;19.30;;
6193;SDS011;3130;41.564;23.280;2022-10-31T06:20:10;36.37;;;15.77;;
6193;SDS011;3130;41.564;23.280;2022-10-31T06:22:37;20.57;;;13.43;;
6193;SDS011;3130;41.564;23.280;2022-10-31T06:25:05;21.10;;;13.47;;
6193;SDS011;3130;41.564;23.280;2022-10-31T06:27:32;20.87;;;13.00;;
6193;SDS011;3130;41.564;23.280;2022-10-31T06:29:59;28.53;;;13.43;;
6193;SDS011;3130;41.564;23.280;2022-10-31T06:32:26;23.33;;;16.00;;
6193;SDS011;3130;41.564;23.280;2022-10-31T06:34:53;28.30;;;16.33;;
6193;SDS011;3130;41.564;23.280;2022-10-31T06:37:21;16.80;;;12.47;;
6193;SDS011;3130;41.564;23.280;2022-10-31T06:39:49;13.67;;;11.00;;
6193;SDS011;3130;41.564;23.280;2022-10-31T06:42:16;15.93;;;11.50;;
6193;SDS011;3130;41.564;23.280;2022-10-31T06:44:43;22.90;;;11.70;;
6193;SDS011;3130;41.564;23.280;2022-10-31T06:47:10;20.10;;;12.10;;
6193;SDS011;3130;41.564;23.280;2022-10-31T06:49:37;16.57;;;12.33;;
6193;SDS011;3130;41.564;23.280;2022-10-31T06:52:04;16.57;;;11.33;;
6193;SDS011;3130;41.564;23.280;2022-10-31T06:54:33;14.77;;;11.93;;
6193;SDS011;3130;41.564;23.280;2022-10-31T06:57:00;19.53;;;13.93;;
6193;SDS011;3130;41.564;23.280;2022-10-31T06:59:27;19.97;;;13.50;;
6193;SDS011;3130;41.564;23.280;2022-10-31T07:01:55;20.13;;;12.13;;
6193;SDS011;3130;41.564;23.280;2022-10-31T07:04:24;15.37;;;11.17;;
6193;SDS011;3130;41.564;23.280;2022-10-31T07:06:51;15.73;;;11.63;;
6193;SDS011;3130;41.564;23.280;2022-10-31T07:09:18;17.77;;;11.10;;
6193;SDS011;3130;41.564;23.280;2022-10-31T07:11:47;14.50;;;10.43;;
6193;SDS011;3130;41.564;23.280;2022-10-31T07:17:00;18.77;;;11.47;;
6193;SDS011;3130;41.564;23.280;2022-10-31T07:19:27;17.97;;;11.03;;
6193;SDS011;3130;41.564;23.280;2022-10-31T07:21:54;16.53;;;10.80;;
6193;SDS011;3130;41.564;23.280;2022-10-31T07:24:21;11.83;;;9.37;;
6193;SDS011;3130;41.564;23.280;2022-10-31T07:26:49;16.83;;;10.33;;
6193;SDS011;3130;41.564;23.280;2022-10-31T07:29:16;13.47;;;8.13;;
6193;SDS011;3130;41.564;23.280;2022-10-31T07:31:45;13.27;;;7.67;;
6193;SDS011;3130;41.564;23.280;2022-10-31T07:34:12;15.97;;;9.10;;
6193;SDS011;3130;41.564;23.280;2022-10-31T07:36:39;13.40;;;8.20;;
6193;SDS011;3130;41.564;23.280;2022-10-31T07:39:06;10.05;;;6.53;;
6193;SDS011;3130;41.564;23.280;2022-10-31T07:41:33;8.63;;;6.50;;
6193;SDS011;3130;41.564;23.280;2022-10-31T07:44:02;9.77;;;7.38;;
6193;SDS011;3130;41.564;23.280;2022-10-31T07:46:29;13.30;;;7.50;;
6193;SDS011;3130;41.564;23.280;2022-10-31T07:48:56;13.73;;;7.80;;
6193;SDS011;3130;41.564;23.280;2022-10-31T07:51:23;9.30;;;6.70;;
6193;SDS011;3130;41.564;23.280;2022-10-31T07:53:51;11.68;;;8.25;;
6193;SDS011;3130;41.564;23.280;2022-10-31T07:56:18;11.90;;;7.90;;
6193;SDS011;3130;41.564;23.280;2022-10-31T07:58:45;12.02;;;7.10;;
6193;SDS011;3130;41.564;23.280;2022-10-31T08:01:14;10.45;;;6.95;;
6193;SDS011;3130;41.564;23.280;2022-10-31T08:03:41;8.30;;;6.85;;
6193;SDS011;3130;41.564;23.280;2022-10-31T08:06:08;11.50;;;6.90;;
6193;SDS011;3130;41.564;23.280;2022-10-31T08:08:35;11.93;;;6.80;;
6193;SDS011;3130;41.564;23.280;2022-10-31T08:11:02;9.95;;;7.22;;
6193;SDS011;3130;41.564;23.280;2022-10-31T08:13:29;10.45;;;6.72;;
6193;SDS011;3130;41.564;23.280;2022-10-31T08:15:57;7.13;;;5.97;;
6193;SDS011;3130;41.564;23.280;2022-10-31T08:18:30;15.90;;;6.97;;
6193;SDS011;3130;41.564;23.280;2022-10-31T08:20:57;11.43;;;6.83;;
6193;SDS011;3130;41.564;23.280;2022-10-31T08:23:24;12.53;;;7.60;;
6193;SDS011;3130;41.564;23.280;2022-10-31T08:25:51;11.43;;;6.87;;
6193;SDS011;3130;41.564;23.280;2022-10-31T08:28:19;12.07;;;8.67;;
6193;SDS011;3130;41.564;23.280;2022-10-31T08:30:46;12.47;;;8.03;;
6193;SDS011;3130;41.564;23.280;2022-10-31T08:33:14;11.63;;;7.50;;
6193;SDS011;3130;41.564;23.280;2022-10-31T08:35:44;11.00;;;7.50;;
6193;SDS011;3130;41.564;23.280;2022-10-31T08:38:12;13.00;;;8.20;;
6193;SDS011;3130;41.564;23.280;2022-10-31T08:40:40;15.47;;;8.33;;
6193;SDS011;3130;41.564;23.280;2022-10-31T08:43:08;13.57;;;9.03;;
6193;SDS011;3130;41.564;23.280;2022-10-31T08:45:38;13.43;;;7.80;;
6193;SDS011;3130;41.564;23.280;2022-10-31T08:48:07;11.27;;;9.07;;
6193;SDS011;3130;41.564;23.280;2022-10-31T08:50:36;12.93;;;7.83;;
6193;SDS011;3130;41.564;23.280;2022-10-31T08:53:05;14.17;;;8.70;;
6193;SDS011;3130;41.564;23.280;2022-10-31T08:55:33;10.50;;;7.77;;
6193;SDS011;3130;41.564;23.280;2022-10-31T08:58:01;11.23;;;7.20;;
6193;SDS011;3130;41.564;23.280;2022-10-31T09:00:29;15.03;;;9.27;;
6193;SDS011;3130;41.564;23.280;2022-10-31T09:02:57;13.07;;;8.77;;
6193;SDS011;3130;41.564;23.280;2022-10-31T09:05:25;12.87;;;8.23;;
6193;SDS011;3130;41.564;23.280;2022-10-31T09:07:54;15.37;;;8.53;;
6193;SDS011;3130;41.564;23.280;2022-10-31T09:10:24;11.57;;;7.40;;
6193;SDS011;3130;41.564;23.280;2022-10-31T09:12:55;9.23;;;6.83;;
6193;SDS011;3130;41.564;23.280;2022-10-31T09:15:22;11.07;;;7.00;;
6193;SDS011;3130;41.564;23.280;2022-10-31T09:17:50;10.00;;;6.43;;
6193;SDS011;3130;41.564;23.280;2022-10-31T09:20:17;10.83;;;6.27;;
6193;SDS011;3130;41.564;23.280;2022-10-31T09:22:44;11.47;;;5.70;;
6193;SDS011;3130;41.564;23.280;2022-10-31T09:25:11;9.00;;;5.37;;
6193;SDS011;3130;41.564;23.280;2022-10-31T09:27:40;10.93;;;5.47;;
6193;SDS011;3130;41.564;23.280;2022-10-31T09:30:07;6.67;;;4.30;;
6193;SDS011;3130;41.564;23.280;2022-10-31T09:32:35;15.80;;;5.97;;
6193;SDS011;3130;41.564;23.280;2022-10-31T09:35:02;6.93;;;4.67;;
6193;SDS011;3130;41.564;23.280;2022-10-31T09:37:30;8.77;;;5.33;;
6193;SDS011;3130;41.564;23.280;2022-10-31T09:39:57;12.60;;;6.57;;
6193;SDS011;3130;41.564;23.280;2022-10-31T09:42:36;17.33;;;5.50;;
6193;SDS011;3130;41.564;23.280;2022-10-31T09:45:18;9.67;;;6.17;;
6193;SDS011;3130;41.564;23.280;2022-10-31T09:47:57;8.87;;;6.90;;
6193;SDS011;3130;41.564;23.280;2022-10-31T09:50:42;6.83;;;4.63;;
6193;SDS011;3130;41.564;23.280;2022-10-31T09:53:16;9.47;;;5.10;;
6193;SDS011;3130;41.564;23.280;2022-10-31T09:55:50;9.07;;;4.87;;
6193;SDS011;3130;41.564;23.280;2022-10-31T09:58:20;7.93;;;5.40;;
6193;SDS011;3130;41.564;23.280;2022-10-31T10:00:50;7.03;;;4.87;;
6193;SDS011;3130;41.564;23.280;2022-10-31T10:03:24;7.97;;;4.53;;
6193;SDS011;3130;41.564;23.280;2022-10-31T10:06:01;8.27;;;5.30;;
6193;SDS011;3130;41.564;23.280;2022-10-31T10:08:35;6.87;;;4.00;;
6193;SDS011;3130;41.564;23.280;2022-10-31T10:11:08;8.20;;;4.73;;
6193;SDS011;3130;41.564;23.280;2022-10-31T10:13:57;9.63;;;5.50;;
6193;SDS011;3130;41.564;23.280;2022-10-31T10:16:51;7.03;;;5.23;;
6193;SDS011;3130;41.564;23.280;2022-10-31T10:19:40;9.80;;;5.20;;
6193;SDS011;3130;41.564;23.280;2022-10-31T10:22:28;8.10;;;4.53;;
6193;SDS011;3130;41.564;23.280;2022-10-31T10:25:08;6.77;;;5.07;;
6193;SDS011;3130;41.564;23.280;2022-10-31T10:27:46;9.03;;;5.47;;
6193;SDS011;3130;41.564;23.280;2022-10-31T10:30:21;8.70;;;4.90;;
6193;SDS011;3130;41.564;23.280;2022-10-31T10:32:54;7.47;;;4.50;;
6193;SDS011;3130;41.564;23.280;2022-10-31T10:35:26;12.87;;;5.27;;
6193;SDS011;3130;41.564;23.280;2022-10-31T10:37:59;7.33;;;4.77;;
6193;SDS011;3130;41.564;23.280;2022-10-31T10:40:30;11.43;;;4.73;;
6193;SDS011;3130;41.564;23.280;2022-10-31T10:43:01;10.40;;;7.03;;
6193;SDS011;3130;41.564;23.280;2022-10-31T10:45:48;6.93;;;5.70;;
6193;SDS011;3130;41.564;23.280;2022-10-31T10:48:39;6.27;;;4.67;;
6193;SDS011;3130;41.564;23.280;2022-10-31T10:51:14;8.77;;;5.53;;
6193;SDS011;3130;41.564;23.280;2022-10-31T10:53:49;9.37;;;4.87;;
6193;SDS011;3130;41.564;23.280;2022-10-31T10:56:35;9.20;;;4.87;;
6193;SDS011;3130;41.564;23.280;2022-10-31T10:59:09;11.93;;;5.67;;
6193;SDS011;3130;41.564;23.280;2022-10-31T11:01:42;8.83;;;6.13;;
6193;SDS011;3130;41.564;23.280;2022-10-31T11:04:14;10.27;;;4.53;;
6193;SDS011;3130;41.564;23.280;2022-10-31T11:06:58;8.37;;;5.40;;
6193;SDS011;3130;41.564;23.280;2022-10-31T11:09:27;12.43;;;4.83;;
6193;SDS011;3130;41.564;23.280;2022-10-31T11:11:54;5.80;;;4.43;;
6193;SDS011;3130;41.564;23.280;2022-10-31T11:14:23;7.13;;;4.20;;
6193;SDS011;3130;41.564;23.280;2022-10-31T11:16:53;8.43;;;4.57;;
6193;SDS011;3130;41.564;23.280;2022-10-31T11:19:22;5.67;;;4.27;;
6193;SDS011;3130;41.564;23.280;2022-10-31T11:21:52;7.47;;;4.03;;
6193;SDS011;3130;41.564;23.280;2022-10-31T11:24:20;4.83;;;3.90;;
6193;SDS011;3130;41.564;23.280;2022-10-31T11:26:50;5.77;;;4.27;;
6193;SDS011;3130;41.564;23.280;2022-10-31T11:29:20;11.87;;;5.07;;
6193;SDS011;3130;41.564;23.280;2022-10-31T11:31:50;10.40;;;4.60;;
6193;SDS011;3130;41.564;23.280;2022-10-31T11:34:28;7.47;;;4.17;;
6193;SDS011;3130;41.564;23.280;2022-10-31T11:37:00;6.63;;;5.10;;
6193;SDS011;3130;41.564;23.280;2022-10-31T11:39:31;7.13;;;4.60;;
6193;SDS011;3130;41.564;23.280;2022-10-31T11:41:59;7.23;;;4.93;;
6193;SDS011;3130;41.564;23.280;2022-10-31T11:44:29;4.97;;;4.37;;
6193;SDS011;3130;41.564;23.280;2022-10-31T11:47:00;8.27;;;5.00;;
6193;SDS011;3130;41.564;23.280;2022-10-31T11:49:31;6.97;;;4.17;;
6193;SDS011;3130;41.564;23.280;2022-10-31T11:52:04;7.67;;;4.50;;
6193;SDS011;3130;41.564;23.280;2022-10-31T11:54:34;8.40;;;4.90;;
6193;SDS011;3130;41.564;23.280;2022-10-31T11:57:21;8.97;;;5.57;;
6193;SDS011;3130;41.564;23.280;2022-10-31T11:59:50;7.43;;;5.03;;
6193;SDS011;3130;41.564;23.280;2022-10-31T12:02:20;10.20;;;5.43;;
6193;SDS011;3130;41.564;23.280;2022-10-31T12:04:48;7.30;;;4.13;;
6193;SDS011;3130;41.564;23.280;2022-10-31T12:07:22;6.83;;;5.60;;
6193;SDS011;3130;41.564;23.280;2022-10-31T12:09:55;9.37;;;5.13;;
6193;SDS011;3130;41.564;23.280;2022-10-31T12:15:29;5.33;;;3.90;;
6193;SDS011;3130;41.564;23.280;2022-10-31T12:18:04;8.63;;;4.93;;
6193;SDS011;3130;41.564;23.280;2022-10-31T12:20:52;6.97;;;4.55;;
6193;SDS011;3130;41.564;23.280;2022-10-31T12:23:28;7.73;;;5.03;;
6193;SDS011;3130;41.564;23.280;2022-10-31T12:26:05;9.60;;;4.53;;
6193;SDS011;3130;41.564;23.280;2022-10-31T12:28:45;7.83;;;5.03;;
6193;SDS011;3130;41.564;23.280;2022-10-31T12:31:24;5.80;;;4.20;;
6193;SDS011;3130;41.564;23.280;2022-10-31T12:34:06;6.72;;;4.07;;
6193;SDS011;3130;41.564;23.280;2022-10-31T12:36:59;6.65;;;4.88;;
6193;SDS011;3130;41.564;23.280;2022-10-31T12:39:34;6.63;;;3.65;;
6193;SDS011;3130;41.564;23.280;2022-10-31T12:42:11;6.10;;;4.63;;
6193;SDS011;3130;41.564;23.280;2022-10-31T12:45:03;6.55;;;3.97;;
6193;SDS011;3130;41.564;23.280;2022-10-31T12:50:39;9.40;;;4.50;;
6193;SDS011;3130;41.564;23.280;2022-10-31T12:53:21;6.47;;;4.10;;
6193;SDS011;3130;41.564;23.280;2022-10-31T12:56:00;6.40;;;4.27;;
6193;SDS011;3130;41.564;23.280;2022-10-31T12:58:38;5.57;;;4.15;;
6193;SDS011;3130;41.564;23.280;2022-10-31T13:01:12;8.18;;;4.30;;
6193;SDS011;3130;41.564;23.280;2022-10-31T13:03:45;6.05;;;4.63;;
6193;SDS011;3130;41.564;23.280;2022-10-31T13:06:19;8.68;;;4.25;;
6193;SDS011;3130;41.564;23.280;2022-10-31T13:08:51;8.65;;;4.63;;
6193;SDS011;3130;41.564;23.280;2022-10-31T13:11:22;8.82;;;4.22;;
6193;SDS011;3130;41.564;23.280;2022-10-31T13:13:55;5.25;;;3.97;;
6193;SDS011;3130;41.564;23.280;2022-10-31T13:16:28;9.20;;;4.97;;
6193;SDS011;3130;41.564;23.280;2022-10-31T13:19:01;7.47;;;4.57;;
6193;SDS011;3130;41.564;23.280;2022-10-31T13:21:37;6.38;;;4.15;;
6193;SDS011;3130;41.564;23.280;2022-10-31T13:24:10;5.45;;;3.83;;
6193;SDS011;3130;41.564;23.280;2022-10-31T13:26:41;6.20;;;3.42;;
6193;SDS011;3130;41.564;23.280;2022-10-31T13:29:15;6.47;;;4.57;;
6193;SDS011;3130;41.564;23.280;2022-10-31T13:31:46;6.90;;;4.80;;
6193;SDS011;3130;41.564;23.280;2022-10-31T13:34:18;6.63;;;3.80;;
6193;SDS011;3130;41.564;23.280;2022-10-31T13:36:53;5.85;;;4.03;;
6193;SDS011;3130;41.564;23.280;2022-10-31T13:39:29;13.98;;;5.68;;
6193;SDS011;3130;41.564;23.280;2022-10-31T13:42:09;7.10;;;4.10;;
6193;SDS011;3130;41.564;23.280;2022-10-31T13:44:43;9.27;;;4.78;;
6193;SDS011;3130;41.564;23.280;2022-10-31T13:47:21;7.18;;;4.28;;
6193;SDS011;3130;41.564;23.280;2022-10-31T13:49:50;5.53;;;3.97;;
6193;SDS011;3130;41.564;23.280;2022-10-31T13:52:23;11.48;;;5.38;;
6193;SDS011;3130;41.564;23.280;2022-10-31T13:54:53;10.75;;;5.22;;
6193;SDS011;3130;41.564;23.280;2022-10-31T13:57:26;6.97;;;4.15;;
6193;SDS011;3130;41.564;23.280;2022-10-31T13:59:58;6.85;;;3.78;;
6193;SDS011;3130;41.564;23.280;2022-10-31T14:02:28;6.38;;;4.40;;
6193;SDS011;3130;41.564;23.280;2022-10-31T14:04:58;5.60;;;4.97;;
6193;SDS011;3130;41.564;23.280;2022-10-31T14:07:28;4.07;;;3.63;;
6193;SDS011;3130;41.564;23.280;2022-10-31T14:09:59;7.00;;;3.92;;
6193;SDS011;3130;41.564;23.280;2022-10-31T14:12:31;7.33;;;4.50;;
6193;SDS011;3130;41.564;23.280;2022-10-31T14:15:03;5.30;;;3.40;;
6193;SDS011;3130;41.564;23.280;2022-10-31T14:17:44;8.27;;;4.25;;
6193;SDS011;3130;41.564;23.280;2022-10-31T14:23:24;5.32;;;3.70;;
6193;SDS011;3130;41.564;23.280;2022-10-31T14:28:59;8.25;;;4.22;;
6193;SDS011;3130;41.564;23.280;2022-10-31T14:31:51;7.60;;;5.00;;
6193;SDS011;3130;41.564;23.280;2022-10-31T14:34:21;6.73;;;4.03;;
6193;SDS011;3130;41.564;23.280;2022-10-31T14:36:57;8.97;;;5.33;;
6193;SDS011;3130;41.564;23.280;2022-10-31T14:39:39;5.90;;;3.90;;
6193;SDS011;3130;41.564;23.280;2022-10-31T14:42:19;10.40;;;3.93;;
6193;SDS011;3130;41.564;23.280;2022-10-31T14:45:06;7.63;;;5.47;;
6193;SDS011;3130;41.564;23.280;2022-10-31T14:47:45;9.63;;;5.43;;
6193;SDS011;3130;41.564;23.280;2022-10-31T14:50:23;9.07;;;5.30;;
6193;SDS011;3130;41.564;23.280;2022-10-31T14:53:00;5.40;;;4.23;;
6193;SDS011;3130;41.564;23.280;2022-10-31T14:55:31;7.80;;;5.07;;
6193;SDS011;3130;41.564;23.280;2022-10-31T14:58:00;7.27;;;4.60;;
6193;SDS011;3130;41.564;23.280;2022-10-31T15:00:31;7.13;;;4.50;;
6193;SDS011;3130;41.564;23.280;2022-10-31T15:03:05;10.40;;;4.70;;
6193;SDS011;3130;41.564;23.280;2022-10-31T15:05:41;6.97;;;4.50;;
6193;SDS011;3130;41.564;23.280;2022-10-31T15:08:13;6.63;;;4.63;;
6193;SDS011;3130;41.564;23.280;2022-10-31T15:10:53;5.70;;;4.37;;
6193;SDS011;3130;41.564;23.280;2022-10-31T15:13:21;7.53;;;3.60;;
6193;SDS011;3130;41.564;23.280;2022-10-31T15:15:49;8.90;;;5.33;;
6193;SDS011;3130;41.564;23.280;2022-10-31T15:18:19;5.57;;;4.93;;
6193;SDS011;3130;41.564;23.280;2022-10-31T15:20:49;8.47;;;6.00;;
6193;SDS011;3130;41.564;23.280;2022-10-31T15:23:20;6.77;;;4.93;;
6193;SDS011;3130;41.564;23.280;2022-10-31T15:25:49;11.40;;;5.17;;
6193;SDS011;3130;41.564;23.280;2022-10-31T15:28:22;5.80;;;4.47;;
6193;SDS011;3130;41.564;23.280;2022-10-31T15:30:51;8.10;;;5.33;;
6193;SDS011;3130;41.564;23.280;2022-10-31T15:33:20;8.07;;;5.23;;
6193;SDS011;3130;41.564;23.280;2022-10-31T15:35:58;6.30;;;5.33;;